createdAt,value
2023-03-15T00:01:16.337Z,18.17
2023-03-15T00:03:43.472Z,11.82
2023-03-15T00:06:10.594Z,13.98
2023-03-15T00:08:37.584Z,11.80
2023-03-15T00:11:04.492Z,12.45
2023-03-15T00:13:31.661Z,8.00
2023-03-15T00:16:00.758Z,6.95
2023-03-15T00:18:27.627Z,8.40
2023-03-15T00:20:54.365Z,10.73
2023-03-15T00:23:20.910Z,11.10
2023-03-15T00:25:49.166Z,8.23
2023-03-15T00:28:15.882Z,13.30
2023-03-15T00:30:42.854Z,16.42
2023-03-15T00:33:13.639Z,18.25
2023-03-15T00:35:42.685Z,10.48
2023-03-15T00:38:09.651Z,14.80
2023-03-15T00:40:37.444Z,14.40
2023-03-15T00:43:04.148Z,9.70
2023-03-15T00:45:30.566Z,8.00
2023-03-15T00:47:57.107Z,7.63
2023-03-15T00:50:23.704Z,9.35
2023-03-15T00:52:50.516Z,8.25
2023-03-15T00:55:19.041Z,11.00
2023-03-15T00:57:47.801Z,9.35
2023-03-15T01:00:24.372Z,7.68
2023-03-15T01:02:52.840Z,8.75
2023-03-15T01:05:20.130Z,9.68
2023-03-15T01:07:47.238Z,11.48
2023-03-15T01:10:15.337Z,8.38
2023-03-15T01:12:41.912Z,10.75
2023-03-15T01:15:13.420Z,11.15
2023-03-15T01:17:40.972Z,10.60
2023-03-15T01:20:08.745Z,9.98
2023-03-15T01:22:35.505Z,11.90
2023-03-15T01:25:01.975Z,12.60
2023-03-15T01:27:28.355Z,8.07
2023-03-15T01:29:55.025Z,11.10
2023-03-15T01:32:21.486Z,10.40
2023-03-15T01:34:48.061Z,9.20
2023-03-15T01:37:14.805Z,11.38
2023-03-15T01:39:44.292Z,8.10
2023-03-15T01:42:11.476Z,9.13
2023-03-15T01:44:47.854Z,7.65
2023-03-15T01:47:14.255Z,12.02
2023-03-15T01:49:40.954Z,6.65
2023-03-15T01:52:12.983Z,7.10
2023-03-15T01:55:10.024Z,8.13
2023-03-15T01:57:46.703Z,7.22
2023-03-15T02:00:16.519Z,5.47
2023-03-15T02:02:59.228Z,5.93
2023-03-15T02:05:33.977Z,5.30
2023-03-15T02:08:05.916Z,7.65
2023-03-15T02:10:38.943Z,6.18
2023-03-15T02:13:06.850Z,6.82
2023-03-15T02:15:33.339Z,8.13
2023-03-15T02:18:03.231Z,10.00
2023-03-15T02:20:54.052Z,12.40
2023-03-15T02:23:22.542Z,8.50
2023-03-15T02:26:22.596Z,14.93
2023-03-15T02:28:50.663Z,11.48
2023-03-15T02:31:19.734Z,11.52
2023-03-15T02:33:49.656Z,8.23
2023-03-15T02:36:26.537Z,12.38
2023-03-15T02:38:54.154Z,12.23
2023-03-15T02:41:33.360Z,12.18
2023-03-15T02:44:05.279Z,10.27
2023-03-15T02:46:32.165Z,11.07
2023-03-15T02:48:59.889Z,11.32
2023-03-15T02:51:29.663Z,10.80
2023-03-15T02:53:56.927Z,10.63
2023-03-15T02:56:24.433Z,7.47
2023-03-15T02:58:51.073Z,7.05
2023-03-15T03:01:18.732Z,6.07
2023-03-15T03:03:46.390Z,4.95
2023-03-15T03:06:15.077Z,6.63
2023-03-15T03:08:41.938Z,5.45
2023-03-15T03:11:09.427Z,3.88
2023-03-15T03:13:37.068Z,3.13
2023-03-15T03:16:05.398Z,3.45
2023-03-15T03:18:35.625Z,5.43
2023-03-15T03:21:05.651Z,4.53
2023-03-15T03:23:34.120Z,3.65
2023-03-15T03:26:01.254Z,5.75
2023-03-15T03:28:30.055Z,5.93
2023-03-15T03:30:58.492Z,4.65
2023-03-15T03:33:26.556Z,4.40
2023-03-15T03:35:54.057Z,3.88
2023-03-15T03:38:20.693Z,4.13
2023-03-15T03:43:20.305Z,6.28
2023-03-15T03:45:46.813Z,4.90
2023-03-15T03:48:14.594Z,5.75
2023-03-15T03:50:40.966Z,4.22
2023-03-15T03:53:07.522Z,5.50
2023-03-15T03:55:34.968Z,6.40
2023-03-15T03:58:01.420Z,7.15
2023-03-15T04:00:45.436Z,6.22
2023-03-15T04:03:12.887Z,8.07
2023-03-15T04:05:44.856Z,7.82
2023-03-15T04:08:16.407Z,7.18
2023-03-15T04:10:43.192Z,6.93
2023-03-15T04:13:10.300Z,8.32
2023-03-15T04:15:37.009Z,7.43
2023-03-15T04:18:05.726Z,6.97
2023-03-15T04:20:37.406Z,7.82
2023-03-15T04:23:04.017Z,9.23
2023-03-15T04:25:57.835Z,8.35
2023-03-15T04:28:42.976Z,8.85
2023-03-15T04:31:28.913Z,8.95
2023-03-15T04:34:31.211Z,11.95
2023-03-15T04:37:11.417Z,10.45
2023-03-15T04:39:52.294Z,10.25
2023-03-15T04:42:39.952Z,11.70
2023-03-15T04:45:26.762Z,34.80
2023-03-15T04:48:11.977Z,24.10
2023-03-15T04:50:46.024Z,20.15
2023-03-15T04:53:31.341Z,14.27
2023-03-15T04:56:18.133Z,12.70
2023-03-15T04:59:03.977Z,14.10
2023-03-15T05:01:51.612Z,12.88
2023-03-15T05:04:28.189Z,16.13
2023-03-15T05:07:09.412Z,15.88
2023-03-15T05:09:54.737Z,18.02
2023-03-15T05:12:39.907Z,17.80
2023-03-15T05:15:22.485Z,20.02
2023-03-15T05:17:54.891Z,18.00
2023-03-15T05:20:47.808Z,21.23
2023-03-15T05:23:36.866Z,20.95
2023-03-15T05:29:08.606Z,23.75
2023-03-15T05:31:46.377Z,21.58
2023-03-15T05:34:36.820Z,23.42
2023-03-15T05:37:23.038Z,20.02
2023-03-15T05:40:10.187Z,21.58
2023-03-15T05:42:47.156Z,25.08
2023-03-15T05:45:22.793Z,22.85
2023-03-15T05:47:55.161Z,25.17
2023-03-15T05:50:57.040Z,24.83
2023-03-15T05:53:34.928Z,26.83
2023-03-15T05:56:14.866Z,24.67
2023-03-15T05:58:53.342Z,24.17
2023-03-15T06:01:38.247Z,26.80
2023-03-15T06:04:18.899Z,25.27
2023-03-15T06:06:45.774Z,28.88
2023-03-15T06:09:12.854Z,26.40
2023-03-15T06:11:39.550Z,27.35
2023-03-15T06:14:07.655Z,27.00
2023-03-15T06:16:44.524Z,30.40
2023-03-15T06:19:11.569Z,26.27
2023-03-15T06:21:38.082Z,26.88
2023-03-15T06:24:10.454Z,26.70
2023-03-15T06:26:37.541Z,26.95
2023-03-15T06:29:06.295Z,26.20
2023-03-15T06:31:33.154Z,23.27
2023-03-15T06:34:05.842Z,22.92
2023-03-15T06:36:33.791Z,25.15
2023-03-15T06:39:02.797Z,26.45
2023-03-15T06:41:29.275Z,24.95
2023-03-15T06:44:03.622Z,25.13
2023-03-15T06:46:30.211Z,21.02
2023-03-15T06:48:56.830Z,22.13
2023-03-15T06:51:23.604Z,26.85
2023-03-15T06:53:50.037Z,20.30
2023-03-15T06:56:16.636Z,23.15
2023-03-15T06:58:43.284Z,23.33
2023-03-15T07:01:13.387Z,22.73
2023-03-15T07:03:40.900Z,21.50
2023-03-15T07:06:07.459Z,24.77
2023-03-15T07:08:34.695Z,21.88
2023-03-15T07:11:03.118Z,24.25
2023-03-15T07:13:29.830Z,18.98
2023-03-15T07:15:56.738Z,21.30
2023-03-15T07:18:23.693Z,24.17
2023-03-15T07:21:01.119Z,21.58
2023-03-15T07:23:28.357Z,17.58
2023-03-15T07:25:55.991Z,22.00
2023-03-15T07:28:24.716Z,19.77
2023-03-15T07:31:05.559Z,23.58
2023-03-15T07:33:34.054Z,23.35
2023-03-15T07:36:01.343Z,26.75
2023-03-15T07:38:31.167Z,20.48
2023-03-15T07:40:58.078Z,21.38
2023-03-15T07:43:24.553Z,22.88
2023-03-15T07:45:59.455Z,22.70
2023-03-15T07:48:26.163Z,20.50
2023-03-15T07:50:52.592Z,19.52
2023-03-15T07:53:19.004Z,19.40
2023-03-15T07:55:47.193Z,18.73
2023-03-15T07:58:14.029Z,21.98
2023-03-15T08:00:41.033Z,17.08
2023-03-15T08:03:07.693Z,20.80
2023-03-15T08:05:35.327Z,23.77
2023-03-15T08:08:01.782Z,21.05
2023-03-15T08:10:28.337Z,19.17
2023-03-15T08:12:54.856Z,20.75
2023-03-15T08:15:21.466Z,19.15
2023-03-15T08:17:48.660Z,21.25
2023-03-15T08:20:17.591Z,20.42
2023-03-15T08:22:46.270Z,21.70
2023-03-15T08:25:15.217Z,20.40
2023-03-15T08:27:44.660Z,13.95
2023-03-15T08:30:13.710Z,18.38
2023-03-15T08:32:41.973Z,15.27
2023-03-15T08:35:09.129Z,21.33
2023-03-15T08:37:35.671Z,23.13
2023-03-15T08:40:07.613Z,18.92
2023-03-15T08:42:34.026Z,20.55
2023-03-15T08:45:01.930Z,18.90
2023-03-15T08:47:28.680Z,18.58
2023-03-15T08:49:55.055Z,21.55
2023-03-15T08:52:21.556Z,17.60
2023-03-15T08:54:48.571Z,18.02
2023-03-15T08:57:14.992Z,17.30
2023-03-15T08:59:41.391Z,15.43
2023-03-15T09:02:11.479Z,16.30
2023-03-15T09:04:37.995Z,17.80
2023-03-15T09:07:04.513Z,18.08
2023-03-15T09:09:30.879Z,17.10
2023-03-15T09:11:57.517Z,18.10
2023-03-15T09:14:23.942Z,14.52
2023-03-15T09:16:50.390Z,14.52
2023-03-15T09:19:16.803Z,15.88
2023-03-15T09:21:45.047Z,16.52
2023-03-15T09:24:11.462Z,16.70
2023-03-15T09:26:37.935Z,19.23
2023-03-15T09:29:04.570Z,17.95
2023-03-15T09:31:31.967Z,16.48
2023-03-15T09:33:58.778Z,15.65
2023-03-15T09:36:25.211Z,16.15
2023-03-15T09:38:51.611Z,17.23
2023-03-15T09:41:33.716Z,17.75
2023-03-15T09:44:30.847Z,17.85
2023-03-15T09:47:06.093Z,20.30
2023-03-15T09:49:41.686Z,17.90
2023-03-15T09:52:14.134Z,17.65
2023-03-15T09:54:43.590Z,16.73
2023-03-15T09:57:18.598Z,16.27
2023-03-15T09:59:49.020Z,12.07
2023-03-15T10:02:29.016Z,13.85
2023-03-15T10:05:06.241Z,11.90
2023-03-15T10:07:32.857Z,14.05
2023-03-15T10:09:59.297Z,18.15
2023-03-15T10:12:41.270Z,17.23
2023-03-15T10:15:16.691Z,15.60
2023-03-15T10:18:04.052Z,11.95
2023-03-15T10:20:44.466Z,11.70
2023-03-15T10:23:22.615Z,16.70
2023-03-15T10:25:51.676Z,13.75
2023-03-15T10:28:24.491Z,10.68
2023-03-15T10:30:51.998Z,15.02
2023-03-15T10:33:36.057Z,13.07
2023-03-15T10:36:13.454Z,12.80
2023-03-15T10:38:41.720Z,11.90
2023-03-15T10:41:11.550Z,12.48
2023-03-15T10:43:41.478Z,10.85
2023-03-15T10:46:22.761Z,12.00
2023-03-15T10:48:58.622Z,13.13
2023-03-15T10:51:37.414Z,20.75
2023-03-15T10:54:11.301Z,16.80
2023-03-15T10:56:45.269Z,13.60
2023-03-15T10:59:17.808Z,11.32
2023-03-15T11:01:48.055Z,15.13
2023-03-15T11:04:18.033Z,14.18
2023-03-15T11:06:49.666Z,10.30
2023-03-15T11:09:27.040Z,8.93
2023-03-15T11:12:02.543Z,9.23
2023-03-15T11:14:44.727Z,8.18
2023-03-15T11:17:24.339Z,7.43
2023-03-15T11:19:57.225Z,8.75
2023-03-15T11:22:23.898Z,8.30
2023-03-15T11:24:51.597Z,33.25
2023-03-15T11:27:22.622Z,10.32
2023-03-15T11:29:54.697Z,8.45
2023-03-15T11:32:24.101Z,8.68
2023-03-15T11:35:14.078Z,6.75
2023-03-15T11:37:47.592Z,10.73
2023-03-15T11:40:21.969Z,7.97
2023-03-15T11:42:54.788Z,9.07
2023-03-15T11:45:34.122Z,7.78
2023-03-15T11:48:29.794Z,5.05
2023-03-15T11:50:58.126Z,4.55
2023-03-15T11:53:34.947Z,6.13
2023-03-15T11:56:25.210Z,5.15
2023-03-15T11:59:15.780Z,5.85
2023-03-15T12:01:46.387Z,5.47
2023-03-15T12:04:25.505Z,5.40
2023-03-15T12:06:54.632Z,5.25
2023-03-15T12:09:33.134Z,6.07
2023-03-15T12:12:01.885Z,3.85
2023-03-15T12:14:29.826Z,3.47
2023-03-15T12:17:24.250Z,5.25
2023-03-15T12:20:09.408Z,6.60
2023-03-15T12:22:37.812Z,5.97
2023-03-15T12:25:56.919Z,4.93
2023-03-15T12:28:30.548Z,7.10
2023-03-15T12:33:28.041Z,5.40
2023-03-15T12:36:07.801Z,7.18
2023-03-15T12:38:41.719Z,8.88
2023-03-15T12:41:29.693Z,5.78
2023-03-15T12:44:27.119Z,9.40
2023-03-15T12:46:55.661Z,13.55
2023-03-15T12:49:24.740Z,7.90
2023-03-15T12:52:01.052Z,11.40
2023-03-15T12:54:46.593Z,7.78
2023-03-15T12:57:16.262Z,11.70
2023-03-15T12:59:58.000Z,6.95
2023-03-15T13:02:44.642Z,4.57
2023-03-15T13:05:19.262Z,4.78
2023-03-15T13:08:09.765Z,6.85
2023-03-15T13:10:39.872Z,8.05
2023-03-15T13:13:14.767Z,5.90
2023-03-15T13:15:54.931Z,4.50
2023-03-15T13:18:24.188Z,4.00
2023-03-15T13:21:13.736Z,3.47
2023-03-15T13:23:44.134Z,4.53
2023-03-15T13:26:33.204Z,2.67
2023-03-15T13:29:21.024Z,3.95
2023-03-15T13:32:00.941Z,4.43
2023-03-15T13:34:31.003Z,4.72
2023-03-15T13:36:58.841Z,4.45
2023-03-15T13:39:28.042Z,4.32
2023-03-15T13:42:23.731Z,5.20
2023-03-15T13:45:08.921Z,4.07
2023-03-15T13:47:35.312Z,4.55
2023-03-15T13:50:05.809Z,5.97
2023-03-15T13:52:32.582Z,3.60
2023-03-15T13:55:00.177Z,3.60
2023-03-15T13:57:26.877Z,3.17
2023-03-15T14:00:13.243Z,2.13
2023-03-15T14:02:42.660Z,4.00
2023-03-15T14:05:16.544Z,2.00
2023-03-15T14:07:48.437Z,2.83
2023-03-15T14:10:32.669Z,4.03
2023-03-15T14:13:26.779Z,3.70
2023-03-15T14:15:59.654Z,4.53
2023-03-15T14:18:32.304Z,4.88
2023-03-15T14:21:05.728Z,4.78
2023-03-15T14:23:36.243Z,2.85
2023-03-15T14:26:05.376Z,7.85
2023-03-15T14:28:33.149Z,5.72
2023-03-15T14:31:02.178Z,4.15
2023-03-15T14:33:39.739Z,4.55
2023-03-15T14:36:10.117Z,2.90
2023-03-15T14:38:40.012Z,6.78
2023-03-15T14:41:33.508Z,3.85
2023-03-15T14:44:02.809Z,3.13
2023-03-15T14:46:31.276Z,3.63
2023-03-15T14:48:58.149Z,6.72
2023-03-15T14:51:27.362Z,5.10
2023-03-15T14:53:56.490Z,4.40
2023-03-15T14:56:24.269Z,5.28
2023-03-15T14:58:53.880Z,4.75
2023-03-15T15:01:26.334Z,6.18
2023-03-15T15:04:02.820Z,5.07
2023-03-15T15:06:31.907Z,3.78
2023-03-15T15:09:00.055Z,3.88
2023-03-15T15:11:26.767Z,4.50
2023-03-15T15:13:54.193Z,4.60
2023-03-15T15:16:20.716Z,13.88
2023-03-15T15:18:47.240Z,2.95
2023-03-15T15:21:19.577Z,4.80
2023-03-15T15:23:57.890Z,6.07
2023-03-15T15:26:27.731Z,7.40
2023-03-15T15:28:54.473Z,4.72
2023-03-15T15:31:23.749Z,9.45
2023-03-15T15:33:54.705Z,10.52
2023-03-15T15:36:32.384Z,17.98
2023-03-15T15:39:05.777Z,7.40
2023-03-15T15:41:32.981Z,4.22
2023-03-15T15:43:59.991Z,3.20
2023-03-15T15:46:26.571Z,4.38
2023-03-15T15:48:53.433Z,4.20
2023-03-15T15:51:45.863Z,2.78
2023-03-15T15:54:18.812Z,5.45
2023-03-15T15:56:49.030Z,15.00
2023-03-15T15:59:17.478Z,7.07
2023-03-15T16:01:58.864Z,9.65
2023-03-15T16:04:26.732Z,9.45
2023-03-15T16:06:58.996Z,10.45
2023-03-15T16:09:29.964Z,6.93
2023-03-15T16:11:56.459Z,9.80
2023-03-15T16:14:22.861Z,6.13
2023-03-15T16:16:49.278Z,9.52
2023-03-15T16:19:15.690Z,10.02
2023-03-15T16:21:47.369Z,4.22
2023-03-15T16:24:18.682Z,5.30
2023-03-15T16:26:46.852Z,13.13
2023-03-15T16:29:23.879Z,8.20
2023-03-15T16:31:51.263Z,3.92
2023-03-15T16:34:19.557Z,3.90
2023-03-15T16:36:49.562Z,3.25
2023-03-15T16:39:16.794Z,4.10
2023-03-15T16:41:43.339Z,5.57
2023-03-15T16:44:17.378Z,4.55
2023-03-15T16:46:44.750Z,6.35
2023-03-15T16:49:12.064Z,5.50
2023-03-15T16:51:43.647Z,3.97
2023-03-15T16:54:21.740Z,3.45
2023-03-15T16:56:51.201Z,5.13
2023-03-15T16:59:18.286Z,5.15
2023-03-15T17:01:45.889Z,6.55
2023-03-15T17:04:13.657Z,6.38
2023-03-15T17:06:40.537Z,6.35
2023-03-15T17:09:17.992Z,5.00
2023-03-15T17:11:46.744Z,4.55
2023-03-15T17:14:19.331Z,5.38
2023-03-15T17:16:46.025Z,6.73
2023-03-15T17:19:13.748Z,6.68
2023-03-15T17:21:41.826Z,6.03
2023-03-15T17:24:10.038Z,5.55
2023-03-15T17:26:37.704Z,7.47
2023-03-15T17:29:04.649Z,9.52
2023-03-15T17:31:33.211Z,6.50
2023-03-15T17:33:59.639Z,5.22
2023-03-15T17:36:29.166Z,7.20
2023-03-15T17:38:56.568Z,8.02
2023-03-15T17:41:32.233Z,7.43
2023-03-15T17:43:59.582Z,7.95
2023-03-15T17:46:30.083Z,8.75
2023-03-15T17:48:58.696Z,5.85
2023-03-15T17:51:31.664Z,7.25
2023-03-15T17:53:59.452Z,11.57
2023-03-15T17:56:27.684Z,8.57
2023-03-15T17:58:54.833Z,5.78
2023-03-15T18:01:29.542Z,9.75
2023-03-15T18:03:56.076Z,6.22
2023-03-15T18:06:23.275Z,9.90
2023-03-15T18:08:50.239Z,7.55
2023-03-15T18:11:33.740Z,4.13
2023-03-15T18:14:00.626Z,8.38
2023-03-15T18:16:27.625Z,10.23
2023-03-15T18:18:54.037Z,6.28
2023-03-15T18:21:24.020Z,11.38
2023-03-15T18:23:51.282Z,7.50
2023-03-15T18:26:19.038Z,13.70
2023-03-15T18:28:48.690Z,8.52
2023-03-15T18:31:18.396Z,7.43
2023-03-15T18:33:46.479Z,10.05
2023-03-15T18:36:13.174Z,6.18
2023-03-15T18:38:40.576Z,8.88
2023-03-15T18:41:20.487Z,9.25
2023-03-15T18:43:49.742Z,7.20
2023-03-15T18:46:20.750Z,6.30
2023-03-15T18:48:47.860Z,8.80
2023-03-15T18:51:17.216Z,6.70
2023-03-15T18:53:44.813Z,11.48
2023-03-15T18:56:17.441Z,9.07
2023-03-15T18:58:43.866Z,11.77
2023-03-15T19:01:10.564Z,9.63
2023-03-15T19:03:37.043Z,11.00
2023-03-15T19:06:09.253Z,13.90
2023-03-15T19:08:35.872Z,8.75
2023-03-15T19:11:03.670Z,9.38
2023-03-15T19:13:30.695Z,12.10
2023-03-15T19:15:57.811Z,9.93
2023-03-15T19:18:25.010Z,10.05
2023-03-15T19:20:52.484Z,6.00
2023-03-15T19:23:20.605Z,10.23
2023-03-15T19:25:47.857Z,7.45
2023-03-15T19:28:14.951Z,9.50
2023-03-15T19:30:42.079Z,9.02
2023-03-15T19:33:08.984Z,8.63
2023-03-15T19:35:36.110Z,14.27
2023-03-15T19:38:03.953Z,8.27
2023-03-15T19:40:30.412Z,12.70
2023-03-15T19:42:56.889Z,10.48
2023-03-15T19:45:23.604Z,11.45
2023-03-15T19:47:50.021Z,15.07
2023-03-15T19:50:16.760Z,12.63
2023-03-15T19:52:46.331Z,14.80
2023-03-15T19:55:18.427Z,11.65
2023-03-15T19:57:45.654Z,9.63
2023-03-15T20:00:17.023Z,11.27
2023-03-15T20:02:44.650Z,8.40
2023-03-15T20:05:14.902Z,10.05
2023-03-15T20:07:45.984Z,9.60
2023-03-15T20:10:13.494Z,6.80
2023-03-15T20:12:42.416Z,7.63
2023-03-15T20:15:11.186Z,9.23
2023-03-15T20:17:38.698Z,6.78
2023-03-15T20:20:13.106Z,6.50
2023-03-15T20:22:41.666Z,7.47
2023-03-15T20:25:10.071Z,9.18
2023-03-15T20:27:37.170Z,8.82
2023-03-15T20:30:04.831Z,8.27
2023-03-15T20:32:31.361Z,6.97
2023-03-15T20:34:57.776Z,8.60
2023-03-15T20:37:25.432Z,8.20
2023-03-15T20:39:51.857Z,11.05
2023-03-15T20:42:20.823Z,4.93
2023-03-15T20:44:47.598Z,6.70
2023-03-15T20:47:14.459Z,10.25
2023-03-15T20:49:42.317Z,12.02
2023-03-15T20:52:09.022Z,6.75
2023-03-15T20:54:36.607Z,9.75
2023-03-15T20:57:04.109Z,8.77
2023-03-15T20:59:31.589Z,9.18
2023-03-15T21:01:57.971Z,9.75
2023-03-15T21:04:25.986Z,9.00
2023-03-15T21:06:52.662Z,10.52
2023-03-15T21:09:19.093Z,9.25
2023-03-15T21:11:45.478Z,10.85
2023-03-15T21:14:11.881Z,10.32
2023-03-15T21:16:38.344Z,9.38
2023-03-15T21:19:04.800Z,17.83
2023-03-15T21:21:31.218Z,13.90
2023-03-15T21:23:57.921Z,8.35
2023-03-15T21:26:25.680Z,9.85
2023-03-15T21:28:52.075Z,8.52
2023-03-15T21:31:18.580Z,12.82
2023-03-15T21:33:45.026Z,9.00
2023-03-15T21:36:11.446Z,8.75
2023-03-15T21:38:38.057Z,9.93
2023-03-15T21:41:09.161Z,11.35
2023-03-15T21:43:36.715Z,8.27
2023-03-15T21:46:16.145Z,8.95
2023-03-15T21:48:42.687Z,10.32
2023-03-15T21:51:09.433Z,14.02
2023-03-15T21:53:36.603Z,7.57
2023-03-15T21:56:03.917Z,11.93
2023-03-15T21:58:31.239Z,8.18
2023-03-15T22:01:04.447Z,11.55
2023-03-15T22:03:31.826Z,9.85
2023-03-15T22:05:58.250Z,9.80
2023-03-15T22:08:25.318Z,11.63
2023-03-15T22:10:53.335Z,7.25
2023-03-15T22:13:19.972Z,7.82
2023-03-15T22:15:46.607Z,9.02
2023-03-15T22:18:13.184Z,12.70
2023-03-15T22:20:39.590Z,11.15
2023-03-15T22:23:06.080Z,11.40
2023-03-15T22:25:33.361Z,8.98
2023-03-15T22:28:01.618Z,11.15
2023-03-15T22:30:28.399Z,12.35
2023-03-15T22:32:54.939Z,8.07
2023-03-15T22:35:21.393Z,8.90
2023-03-15T22:37:49.209Z,7.32
2023-03-15T22:40:16.168Z,9.10
2023-03-15T22:42:43.931Z,8.70
2023-03-15T22:45:10.924Z,10.13
2023-03-15T22:47:37.526Z,8.05
2023-03-15T22:50:04.099Z,10.75
2023-03-15T22:52:30.534Z,9.70
2023-03-15T22:54:57.004Z,7.85
2023-03-15T22:57:23.673Z,8.50
2023-03-15T22:59:50.040Z,10.13
2023-03-15T23:02:16.521Z,10.35
2023-03-15T23:04:45.040Z,11.18
2023-03-15T23:07:12.341Z,9.48
2023-03-15T23:09:38.817Z,8.50
2023-03-15T23:12:05.738Z,8.30
2023-03-15T23:14:32.567Z,11.15
2023-03-15T23:16:59.115Z,7.65
2023-03-15T23:19:25.589Z,10.32
2023-03-15T23:21:52.073Z,8.52
2023-03-15T23:24:19.637Z,11.02
2023-03-15T23:26:46.168Z,10.82
2023-03-15T23:29:12.558Z,8.15
2023-03-15T23:31:40.450Z,10.60
2023-03-15T23:34:08.593Z,11.73
2023-03-15T23:36:35.476Z,9.70
2023-03-15T23:39:01.884Z,9.98
2023-03-15T23:41:28.264Z,11.35
2023-03-15T23:43:54.724Z,9.50
2023-03-15T23:46:23.368Z,7.93
2023-03-15T23:48:52.250Z,8.38
2023-03-15T23:51:19.114Z,9.27
2023-03-15T23:53:45.918Z,8.63
2023-03-15T23:56:12.341Z,8.07
2023-03-15T23:58:38.794Z,5.70
